Time;durP1;ratioP1;P1;durP2;ratioP2;P2;SDS_P1;SDS_P2;PMS_P1;PMS_P2;Temp;Humidity;BMP_temperature;BMP_pressure;BME280_temperature;BME280_humidity;BME280_pressure;Samples;Min_cycle;Max_cycle;Signal;HPM_P1;HPM_P2
2022/01/17 00:00:31;;;;;;;17.85;2.58;;;5.70;99.90;;;4.16;100.00;100991.56;4905953;28;20034;-81
2022/01/17 00:03:07;;;;;;;19.67;2.10;;;5.70;99.90;;;4.20;100.00;100987.19;4924186;28;20057;-83
2022/01/17 00:05:33;;;;;;;21.25;2.40;;;5.70;99.90;;;4.18;100.00;100968.94;4892905;28;20030;-81
2022/01/17 00:07:58;;;;;;;24.88;2.38;;;5.70;99.90;;;4.20;100.00;100961.97;4909679;28;20108;-80
2022/01/17 00:10:35;;;;;;;16.67;2.00;;;5.80;99.90;;;4.22;100.00;100968.00;4893195;28;20662;-82
2022/01/17 00:13:01;;;;;;;18.10;2.55;;;5.80;99.90;;;4.23;100.00;100963.66;4900085;28;20039;-80
2022/01/17 00:15:42;;;;;;;24.55;3.35;;;5.80;99.90;;;4.28;100.00;100951.41;4912239;28;20239;-80
2022/01/17 00:20:47;;;;;;;30.80;2.75;;;5.90;99.90;;;4.34;100.00;100959.09;4854422;28;20043;-81
2022/01/17 00:23:18;;;;;;;12.38;1.63;;;5.90;99.90;;;4.31;100.00;100947.00;4903701;28;20545;-81
2022/01/17 00:25:45;;;;;;;23.85;2.65;;;5.90;99.90;;;4.40;100.00;100935.53;4859931;28;20067;-85
2022/01/17 00:28:11;;;;;;;11.05;1.23;;;;;;;4.37;100.00;100935.63;4867835;28;20499;-81
2022/01/17 00:30:37;;;;;;;29.83;2.90;;;5.90;99.90;;;4.38;100.00;100926.03;4893569;28;20098;-82
2022/01/17 00:33:03;;;;;;;21.10;2.10;;;6.00;99.90;;;4.40;100.00;100942.50;4882124;28;20036;-81
2022/01/17 00:35:38;;;;;;;19.38;2.22;;;6.00;99.90;;;4.44;100.00;100931.16;4852439;28;20090;-82
2022/01/17 00:38:05;;;;;;;20.50;2.55;;;6.00;99.90;;;4.45;100.00;100938.06;4867305;28;20900;-82
2022/01/17 00:40:31;;;;;;;13.55;1.42;;;6.00;99.90;;;4.38;100.00;100926.03;4871017;28;20486;-81
2022/01/17 00:43:05;;;;;;;19.60;2.15;;;6.00;99.90;;;4.45;100.00;100945.88;4858083;28;20047;-82
2022/01/17 00:45:31;;;;;;;26.33;2.67;;;6.00;99.90;;;4.46;100.00;100938.03;4885501;28;20363;-80
2022/01/17 00:48:00;;;;;;;16.05;1.85;;;6.00;99.90;;;4.48;100.00;100948.47;4885052;28;20034;-82
2022/01/17 00:50:37;;;;;;;26.23;2.35;;;6.00;99.90;;;4.49;100.00;100934.53;4914903;28;20395;-83
2022/01/17 00:53:10;;;;;;;22.27;2.40;;;6.00;99.90;;;4.50;100.00;100938.88;4886516;28;20391;-82
2022/01/17 00:55:38;;;;;;;13.60;2.28;;;6.10;99.90;;;4.54;100.00;100939.69;4908601;28;20941;-83
2022/01/17 00:58:05;;;;;;;14.00;1.88;;;6.10;99.90;;;4.52;100.00;100930.13;4900418;28;20030;-82
2022/01/17 01:00:32;;;;;;;23.48;2.13;;;6.10;99.90;;;4.54;100.00;100927.50;4855139;28;20511;-81
2022/01/17 01:03:05;;;;;;;28.00;2.50;;;6.10;99.90;;;4.56;100.00;100910.06;4928277;28;20035;-81
2022/01/17 01:05:32;;;;;;;25.77;3.10;;;6.10;99.90;;;4.57;100.00;100901.34;4928165;28;20038;-81
2022/01/17 01:07:58;;;;;;;24.55;2.35;;;6.10;99.90;;;4.56;100.00;100893.53;4860490;28;20026;-82
2022/01/17 01:10:32;;;;;;;16.33;2.67;;;6.10;99.90;;;4.53;100.00;100863.16;4879680;28;20026;-84
2022/01/17 01:12:59;;;;;;;25.98;2.42;;;6.10;99.90;;;4.52;100.00;100851.88;4896961;28;20113;-82
2022/01/17 01:18:38;;;;;;;28.53;2.80;;;6.40;99.90;;;4.55;100.00;100850.97;4875255;28;21040;-81
2022/01/17 01:29:33;;;;;;;14.48;2.10;;;6.10;99.90;;;4.56;99.84;100847.47;4921188;28;20093;-82
2022/01/17 01:32:10;;;;;;;20.88;1.63;;;6.10;99.90;;;4.60;100.00;100837.81;4896690;28;20090;-81
2022/01/17 01:34:43;;;;;;;22.13;2.70;;;6.20;99.90;;;4.65;100.00;100830.78;4900189;28;20042;-81
2022/01/17 01:37:12;;;;;;;18.25;2.47;;;6.20;99.90;;;4.62;99.56;100818.66;4902778;28;20147;-80
2022/01/17 01:39:39;;;;;;;24.13;2.28;;;6.20;99.90;;;4.65;99.79;100818.59;4898459;28;20035;-80
2022/01/17 01:42:18;;;;;;;15.25;1.52;;;6.20;99.90;;;4.67;99.77;100834.22;4908012;28;20081;-81
2022/01/17 01:44:47;;;;;;;10.20;1.42;;;6.20;99.90;;;4.62;99.49;100839.53;4865599;28;20051;-80
2022/01/17 01:47:26;;;;;;;28.15;2.90;;;6.20;99.90;;;4.64;99.92;100818.63;4869933;28;20027;-82
2022/01/17 01:50:01;;;;;;;23.50;1.98;;;6.20;99.90;;;4.70;99.86;100837.59;4864115;28;20098;-82
2022/01/17 01:52:27;;;;;;;22.13;2.53;;;6.30;99.90;;;4.74;100.00;100830.59;4857415;28;20044;-81
2022/01/17 01:54:53;;;;;;;21.48;2.85;;;6.20;99.90;;;4.72;99.94;100824.53;4885544;28;20063;-79
2022/01/17 01:57:18;;;;;;;18.95;1.92;;;6.20;99.90;;;4.72;99.87;100808.88;4880503;28;20115;-80
2022/01/17 01:59:45;;;;;;;23.60;2.60;;;6.30;99.90;;;4.74;99.72;100814.94;4863141;28;20114;-81
2022/01/17 02:02:17;;;;;;;17.92;2.53;;;6.30;99.90;;;4.76;99.74;100799.25;4861623;28;20018;-81
2022/01/17 02:04:43;;;;;;;18.85;2.33;;;6.30;99.90;;;4.80;99.39;100800.91;4883108;28;20438;-79
2022/01/17 02:07:10;;;;;;;23.52;2.47;;;6.30;99.90;;;4.80;99.30;100793.09;4852995;28;20038;-80
2022/01/17 02:09:43;;;;;;;18.45;2.53;;;6.40;99.90;;;4.82;99.40;100786.09;4931105;28;20042;-82
2022/01/17 02:12:10;;;;;;;19.92;2.05;;;6.40;99.90;;;4.84;99.87;100776.47;4906784;28;20054;-80
2022/01/17 02:14:36;;;;;;;20.60;2.08;;;6.40;99.90;;;4.81;99.53;100766.94;4879064;28;20653;-82
2022/01/17 02:17:13;;;;;;;22.80;2.25;;;6.40;99.90;;;4.85;99.73;100779.03;4912739;28;20076;-82
2022/01/17 02:19:45;;;;;;;26.45;2.63;;;6.40;99.90;;;4.89;99.79;100796.34;4873099;28;20607;-80
2022/01/17 02:22:19;;;;;;;16.90;2.10;;;6.50;99.90;;;4.94;99.28;100725.78;4837064;28;20038;-81
2022/01/17 02:24:45;;;;;;;21.15;2.38;;;6.50;99.90;;;4.91;99.66;100776.28;4872140;28;20408;-80
2022/01/17 02:27:10;;;;;;;16.95;1.92;;;6.50;99.90;;;4.90;99.42;100790.25;4888909;28;20129;-82
2022/01/17 02:29:47;;;;;;;21.48;2.40;;;6.50;99.90;;;4.93;99.64;100800.59;4889094;28;20026;-82
2022/01/17 02:32:13;;;;;;;22.27;2.92;;;6.50;99.90;;;4.95;99.63;100787.53;4885332;28;20043;-81
2022/01/17 02:34:48;;;;;;;21.27;3.10;;;6.50;99.90;;;4.98;99.69;100782.22;4878220;28;20059;-82
2022/01/17 02:37:15;;;;;;;26.25;2.92;;;6.60;99.90;;;5.01;99.50;100763.91;4900736;28;20551;-79
2022/01/17 02:39:41;;;;;;;21.35;10.15;;;6.50;99.90;;;4.99;99.76;100770.03;4935751;28;20081;-83
2022/01/17 02:42:07;;;;;;;24.65;2.85;;;6.60;99.90;;;5.02;100.00;100764.75;4911113;28;20034;-82
2022/01/17 02:44:44;;;;;;;12.32;1.73;;;6.60;99.90;;;4.99;99.76;100770.03;4904186;28;20046;-81
2022/01/17 02:47:10;;;;;;;18.42;2.33;;;6.60;99.90;;;5.02;99.69;100759.53;4874382;28;20026;-80
2022/01/17 02:49:46;;;;;;;23.00;2.42;;;6.60;99.90;;;5.05;99.79;100762.91;4902334;28;20027;-82
2022/01/17 02:52:12;;;;;;;;;;;6.60;99.90;;;5.00;99.82;100756.97;4891798;28;20550;-80
2022/01/17 02:54:38;;;;;;;25.13;1.93;;;6.60;99.90;;;5.00;100.00;100753.50;4894118;28;19969;-81
2022/01/17 02:57:31;;;;;;;18.58;2.03;;;6.60;99.90;;;4.99;100.00;100744.81;4905691;28;20055;-79
2022/01/17 02:59:58;;;;;;;26.73;3.03;;;6.60;99.90;;;5.04;100.00;100735.13;4884196;28;20125;-81
2022/01/17 03:02:35;;;;;;;16.27;2.40;;;6.60;99.90;;;5.02;100.00;100749.94;4885200;28;20026;-81
2022/01/17 03:05:02;;;;;;;18.75;2.33;;;6.60;99.90;;;5.06;100.00;100749.00;4893736;28;20031;-81
2022/01/17 03:07:39;;;;;;;14.05;1.67;;;6.70;99.90;;;5.11;100.00;100754.94;4893711;28;20030;-80
2022/01/17 03:10:12;;;;;;;23.05;2.15;;;6.60;99.90;;;5.11;100.00;100752.34;4917089;28;20125;-81
2022/01/17 03:12:40;;;;;;;17.88;1.92;;;6.70;99.90;;;5.10;100.00;100731.50;4915889;28;20477;-80
2022/01/17 03:15:08;;;;;;;12.75;1.85;;;6.70;99.90;;;5.08;100.00;100744.59;4899445;28;20085;-81
2022/01/17 03:17:33;;;;;;;19.05;2.05;;;6.70;99.90;;;5.11;100.00;100728.84;4903198;28;20018;-80
2022/01/17 03:20:09;;;;;;;11.30;1.35;;;6.70;99.90;;;5.18;100.00;100720.88;4937141;28;20030;-82
2022/01/17 03:22:35;;;;;;;21.55;2.95;;;6.70;99.90;;;5.16;100.00;100733.94;4873847;28;20079;-78
2022/01/17 03:25:02;;;;;;;12.13;2.03;;;6.70;99.90;;;5.19;100.00;100725.22;4879958;28;20580;-79
2022/01/17 03:27:30;;;;;;;24.65;3.03;;;6.70;99.90;;;5.23;100.00;100719.03;4896616;28;20050;-82
2022/01/17 03:30:05;;;;;;;21.13;2.42;;;6.80;99.90;;;5.27;100.00;100721.53;4875087;28;20027;-81
2022/01/17 03:32:31;;;;;;;8.82;1.80;;;6.80;99.90;;;5.27;100.00;100733.69;4886790;28;20034;-80
2022/01/17 03:35:06;;;;;;;19.55;2.88;;;6.90;99.90;;;5.28;100.00;100718.00;4889453;28;20117;-82
2022/01/17 03:37:32;;;;;;;14.63;1.73;;;6.90;99.90;;;5.35;100.00;100695.19;4877626;28;20043;-81
2022/01/17 03:39:58;;;;;;;10.63;2.10;;;6.90;99.90;;;5.35;100.00;100650.81;4895401;28;20544;-80
2022/01/17 03:42:25;;;;;;;17.73;1.63;;;;;;;5.35;100.00;100650.81;4879995;28;20113;-79
2022/01/17 03:44:56;;;;;;;22.48;2.05;;;6.90;99.90;;;5.40;100.00;100664.63;4886802;28;20170;-81
2022/01/17 03:47:22;;;;;;;16.63;1.95;;;6.90;99.90;;;5.41;100.00;100684.59;4864860;28;20127;-83
2022/01/17 03:49:48;;;;;;;12.90;1.67;;;7.00;99.90;;;5.46;100.00;100679.25;4884662;28;20511;-82
2022/01/17 03:52:14;;;;;;;11.70;1.95;;;7.00;99.90;;;5.48;100.00;100682.69;4901405;28;20073;-81
2022/01/17 03:54:49;;;;;;;16.88;2.13;;;7.00;99.90;;;5.49;100.00;100674.81;4899450;28;20059;-83
2022/01/17 03:57:15;;;;;;;21.80;2.45;;;7.00;99.90;;;5.51;100.00;100675.63;5117845;23;20062;-82
2022/01/17 03:59:41;;;;;;;13.40;2.17;;;7.00;99.90;;;5.51;100.00;100665.19;4955082;28;20058;-80
2022/01/17 04:02:16;;;;;;;10.52;1.77;;;7.00;99.90;;;5.47;100.00;100642.66;4973729;28;20226;-82
2022/01/17 04:04:42;;;;;;;12.25;1.52;;;7.10;99.90;;;5.49;100.00;100648.69;4961427;28;20034;-81
2022/01/17 04:07:20;;;;;;;15.82;1.80;;;7.10;99.90;;;5.49;100.00;100664.38;4889863;28;20069;-80
2022/01/17 04:09:46;;;;;;;16.10;1.90;;;7.10;99.90;;;5.51;100.00;100675.63;4942117;28;21721;-81
2022/01/17 04:12:15;;;;;;;23.27;2.35;;;;;;;5.54;100.00;100652.03;4890461;28;20044;-81
2022/01/17 04:14:55;;;;;;;21.73;2.10;;;;;;;5.63;100.00;100663.13;4953742;28;20039;-81
2022/01/17 04:17:31;;;;;;;15.55;1.85;;;;;;;5.64;100.00;100655.28;4958089;23;20053;-81
2022/01/17 04:20:08;;;;;;;15.10;2.13;;;;;;;5.65;100.00;100641.28;5014503;28;20037;-83
2022/01/17 04:22:40;;;;;;;6.22;1.45;;;;;;;5.68;100.00;100661.25;4963231;28;20042;-80
2022/01/17 04:25:14;;;;;;;16.05;2.33;;;7.30;99.90;;;5.76;100.00;100654.06;4975992;28;20051;-82
2022/01/17 04:27:40;;;;;;;12.68;1.55;;;7.30;99.90;;;5.74;100.00;100658.47;4954003;28;20053;-81
2022/01/17 04:30:28;;;;;;;16.77;1.35;;;7.30;99.90;;;5.76;100.00;100659.28;4977855;28;20058;-82
2022/01/17 04:33:01;;;;;;;18.83;1.85;;;;;;;5.78;100.00;100636.59;4995075;28;20030;-81
2022/01/17 04:35:38;;;;;;;16.30;1.80;;;7.30;99.90;;;5.81;100.00;100639.13;4955769;28;20049;-80
2022/01/17 04:38:19;;;;;;;11.50;1.88;;;;;;;5.80;100.00;100649.63;4968869;28;20080;-81
2022/01/17 04:41:06;;;;;;;19.48;1.77;;;;;;;5.83;100.00;100637.34;4980610;28;20049;-81
2022/01/17 04:45:07;;;;;;;21.75;2.80;;;7.40;99.90;;;5.86;100.00;100636.38;4975567;28;20072;-82
2022/01/17 04:46:51;;;;;;;9.45;1.48;;;;;;;5.84;100.00;100620.75;4963577;28;20038;-80
2022/01/17 04:49:17;;;;;;;20.70;2.50;;;;;;;5.79;100.00;100617.41;4973724;28;20046;-82
2022/01/17 04:51:52;;;;;;;18.27;2.28;;;7.40;99.90;;;5.81;100.00;100619.97;4967178;28;20125;-81
2022/01/17 04:57:13;;;;;;;9.05;1.98;;;7.30;99.90;;;5.66;100.00;100608.19;4949629;23;20078;-82
2022/01/17 04:59:40;;;;;;;9.15;1.20;;;7.20;99.90;;;5.59;100.00;100601.44;4991204;28;20049;-82
2022/01/17 05:02:06;;;;;;;12.25;2.38;;;7.20;99.90;;;5.46;100.00;100606.97;4977878;28;20089;-81
2022/01/17 05:04:44;;;;;;;14.35;1.73;;;7.10;99.90;;;5.48;100.00;100607.81;4988180;28;20128;-83
2022/01/17 05:07:10;;;;;;;15.63;2.28;;;7.10;99.90;;;5.50;100.00;100605.16;5000381;28;20069;-81
2022/01/17 05:09:48;;;;;;;10.88;1.17;;;;;;;5.48;100.00;100607.81;4973349;28;20042;-81
2022/01/17 05:12:15;;;;;;;12.70;1.52;;;;;;;5.41;100.00;100600.19;4961976;28;20460;-81
2022/01/17 05:15:20;;;;;;;19.73;1.50;;;7.00;99.90;;;5.35;100.00;100562.03;4973089;28;20041;-82
2022/01/17 05:20:47;;;;;;;10.85;1.33;;;6.90;99.90;;;5.30;100.00;100577.84;4937467;28;20045;-82
2022/01/17 05:23:22;;;;;;;9.18;1.20;;;6.90;99.90;;;5.26;100.00;100530.97;4944117;28;20042;-81
2022/01/17 05:25:48;;;;;;;10.73;1.35;;;6.80;99.90;;;5.25;100.00;100560.59;4964378;28;20038;-81
2022/01/17 05:28:14;;;;;;;12.18;1.35;;;6.90;99.90;;;5.26;100.00;100552.69;4932930;28;20122;-81
2022/01/17 05:30:48;;;;;;;8.43;1.50;;;6.90;99.90;;;5.28;100.00;100543.06;4933391;28;20029;-82
2022/01/17 05:33:14;;;;;;;8.75;0.98;;;6.90;99.90;;;5.28;100.00;100534.41;4970172;28;20118;-80
2022/01/17 05:35:40;;;;;;;11.25;1.10;;;6.90;99.90;;;5.29;100.00;100541.31;4965251;28;20121;-81
2022/01/17 05:38:06;;;;;;;11.93;1.17;;;6.90;99.90;;;5.29;100.00;100530.88;4987002;28;20054;-81
2022/01/17 05:40:40;;;;;;;7.05;1.30;;;;;;;5.26;100.00;100538.81;4954323;28;20043;-80
2022/01/17 05:43:09;;;;;;;9.82;1.13;;;;;;;5.27;100.00;100549.22;4913683;28;20046;-81
2022/01/17 05:45:48;;;;;;;8.20;1.45;;;6.90;99.90;;;5.30;100.00;100546.50;4891794;28;20469;-81
2022/01/17 05:48:14;;;;;;;11.30;1.50;;;;;;;5.33;100.00;100549.03;4917989;28;20052;-81
2022/01/17 05:51:09;;;;;;;13.07;1.38;;;6.90;99.90;;;5.35;100.00;100547.22;4946174;28;20440;-82
2022/01/17 05:53:44;;;;;;;18.45;1.33;;;7.00;99.90;;;5.38;100.00;100530.63;4992057;28;20548;-81
2022/01/17 05:56:10;;;;;;;8.45;1.17;;;6.90;99.90;;;5.33;100.00;100522.06;4906126;23;20034;-81
2022/01/17 05:58:39;;;;;;;15.52;1.42;;;6.90;99.90;;;5.40;100.00;100543.63;4983049;28;20138;-81
2022/01/17 06:01:17;;;;;;;14.85;1.45;;;;;;;5.43;100.00;100525.28;4947956;28;20117;-81
2022/01/17 06:04:09;;;;;;;11.98;1.50;;;7.00;99.90;;;5.43;100.00;100512.22;4970590;28;20120;-82
2022/01/17 06:06:38;;;;;;;8.57;1.60;;;7.00;99.90;;;5.44;100.00;100519.13;4946998;28;20041;-81
2022/01/17 06:09:14;;;;;;;11.48;1.23;;;7.10;99.90;;;5.52;100.00;100491.91;4991392;28;20077;-82
2022/01/17 06:11:39;;;;;;;15.10;1.88;;;7.10;99.90;;;5.57;100.00;100489.16;4966524;28;20042;-81
2022/01/17 06:14:07;;;;;;;9.23;0.90;;;7.10;99.90;;;5.62;100.00;100544.75;4957784;28;20050;-80
2022/01/17 06:17:10;;;;;;;11.48;1.20;;;7.20;99.90;;;5.67;100.00;100568.13;4953124;28;20798;-80
2022/01/17 06:19:36;;;;;;;7.65;1.65;;;7.20;99.90;;;5.69;100.00;100590.69;4959785;28;20154;-80
2022/01/17 06:22:04;;;;;;;4.60;1.42;;;7.20;99.90;;;5.70;100.00;100555.84;4962703;28;20152;-82
2022/01/17 06:24:31;;;;;;;9.07;1.10;;;7.20;99.90;;;5.70;100.00;100561.06;4932592;28;20543;-80
2022/01/17 06:27:06;;;;;;;12.40;1.92;;;;;;;5.76;100.00;100563.47;4931239;28;20033;-81
2022/01/17 06:29:35;;;;;;;6.47;1.65;;;;;;;5.80;100.00;100564.25;4949864;28;20050;-81
2022/01/17 06:32:10;;;;;;;7.43;1.42;;;;;;;5.80;100.00;100538.13;4909290;28;20054;-82
2022/01/17 06:34:55;;;;;;;10.40;1.23;;;;;;;5.78;100.00;100550.38;4937341;28;20148;-82
2022/01/17 06:37:46;;;;;;;181.70;112.78;;;7.30;99.90;;;5.63;100.00;100532.53;4935665;28;20042;-82
2022/01/17 06:40:13;;;;;;;9.43;1.40;;;7.20;99.90;;;5.58;100.00;100529.22;4945664;28;20040;-83
2022/01/17 06:42:51;;;;;;;6.68;1.17;;;7.20;99.90;;;5.57;100.00;100535.31;4964604;28;20050;-80
2022/01/17 06:45:18;;;;;;;8.18;1.20;;;7.20;99.90;;;5.55;100.00;100546.69;4966556;28;20057;-80
2022/01/17 06:47:50;;;;;;;6.55;1.27;;;;;;;5.54;100.00;100550.19;4973229;28;20102;-81
2022/01/17 06:50:17;;;;;;;12.52;1.70;;;7.20;99.90;;;5.59;100.00;100568.31;4948741;28;20139;-82
2022/01/17 06:52:44;;;;;;;8.07;1.50;;;7.20;99.90;;;5.62;100.00;100583.06;4937194;28;20643;-81
2022/01/17 06:55:10;;;;;;;9.57;2.00;;;7.20;99.90;;;5.68;100.00;100614.22;4996613;28;20034;-82
2022/01/17 06:57:45;;;;;;;10.32;2.05;;;7.20;99.90;;;5.70;100.00;100625.50;4957697;28;20583;-81
2022/01/17 07:00:13;;;;;;;8.95;2.13;;;7.20;99.90;;;5.64;100.00;100647.44;4953069;28;20108;-82
2022/01/17 07:02:55;;;;;;;6.45;1.40;;;7.20;99.90;;;5.59;100.00;100664.13;4954425;28;20390;-82
2022/01/17 07:05:44;;;;;;;6.40;1.42;;;7.10;99.90;;;5.53;100.00;100675.59;4962144;28;20042;-81
2022/01/17 07:08:11;;;;;;;8.75;1.60;;;;;;;5.49;100.00;100685.28;4948704;28;20037;-83
2022/01/17 07:10:37;;;;;;;10.45;2.22;;;7.10;99.90;;;5.49;100.00;100671.34;4971169;28;20399;-82
2022/01/17 07:13:28;;;;;;;9.20;1.48;;;7.00;99.90;;;5.38;100.00;100655.97;4972196;28;20360;-82
2022/01/17 07:15:53;;;;;;;11.88;1.15;;;6.90;99.90;;;5.21;100.00;100664.25;4970642;23;20048;-82
2022/01/17 07:18:20;;;;;;;11.20;1.73;;;6.80;99.90;;;5.10;100.00;100655.81;4955942;28;20365;-82
2022/01/17 07:20:47;;;;;;;7.63;1.50;;;;;;;5.03;100.00;100676.00;4960973;28;20034;-82
2022/01/17 07:23:36;;;;;;;15.70;1.50;;;6.60;99.90;;;4.95;100.00;100662.28;5011698;28;20041;-83
2022/01/17 07:26:04;;;;;;;5.88;1.23;;;6.60;99.90;;;4.87;100.00;100683.31;4984163;28;20049;-81
2022/01/17 07:28:30;;;;;;;11.75;1.52;;;6.50;99.90;;;4.92;100.00;100701.47;5014606;28;20038;-81
2022/01/17 07:31:20;;;;;;;13.68;1.40;;;6.50;99.90;;;4.89;100.00;100712.00;4993491;28;20569;-82
2022/01/17 07:33:47;;;;;;;7.72;1.70;;;6.50;99.90;;;4.88;100.00;100720.69;4986698;28;20045;-81
2022/01/17 07:36:18;;;;;;;6.90;1.85;;;;;;;4.87;100.00;100729.44;5001850;28;20091;-82
2022/01/17 07:38:47;;;;;;;8.18;1.42;;;6.50;99.90;;;4.83;100.00;100744.28;4939873;28;20442;-82
2022/01/17 07:41:14;;;;;;;10.30;1.70;;;6.40;99.90;;;4.75;100.00;100748.81;4980067;28;20046;-81
2022/01/17 07:43:41;;;;;;;8.95;1.58;;;6.40;99.90;;;4.77;100.00;100764.44;4986262;28;20042;-82
2022/01/17 07:49:19;;;;;;;10.75;1.80;;;;;;;4.76;100.00;100778.41;4999812;28;20745;-81
2022/01/17 07:52:23;;;;;;;9.35;1.58;;;6.30;99.90;;;4.69;100.00;100786.34;4988303;28;20107;-82
2022/01/17 07:54:52;;;;;;;9.77;1.92;;;6.30;99.90;;;4.52;100.00;100888.41;5013023;28;20049;-80
2022/01/17 07:57:19;;;;;;;13.85;1.45;;;5.20;99.90;;;2.82;99.78;100922.25;5015869;28;20041;-80
2022/01/17 07:59:52;;;;;;;4.15;1.00;;;4.30;99.90;;;1.96;100.00;100939.50;4924972;28;20075;-79
2022/01/17 08:02:18;;;;;;;8.68;2.08;;;3.70;99.90;;;1.54;100.00;100943.28;4992987;28;20037;-80
2022/01/17 08:04:44;;;;;;;7.45;1.25;;;3.50;99.90;;;1.38;100.00;100978.81;4984555;28;20536;-80
2022/01/17 08:07:10;;;;;;;14.23;1.33;;;3.30;99.90;;;1.27;100.00;100985.78;4997969;28;20052;-81
2022/01/17 08:09:45;;;;;;;3.90;1.42;;;3.30;99.90;;;1.21;100.00;100984.97;4991262;28;20042;-82
2022/01/17 08:12:13;;;;;;;17.23;1.55;;;3.10;99.90;;;1.15;100.00;100987.56;4997091;28;20058;-82
2022/01/17 08:14:47;;;;;;;8.98;3.22;;;2.90;99.90;;;0.92;100.00;100987.63;4968782;28;20084;-81
2022/01/17 08:17:13;;;;;;;16.25;2.35;;;2.80;99.90;;;0.82;100.00;101001.47;4939151;28;20041;-81
2022/01/17 08:19:39;;;;;;;11.23;1.30;;;2.70;99.90;;;0.82;100.00;100991.09;4957762;28;20495;-81
2022/01/17 08:22:07;;;;;;;8.05;1.20;;;2.70;99.90;;;0.85;100.00;100987.66;5012069;28;20041;-81
2022/01/17 08:24:43;;;;;;;10.27;1.15;;;;;;;0.86;100.00;100985.06;5007238;28;20034;-81
2022/01/17 08:27:38;;;;;;;10.30;1.35;;;2.70;99.90;;;0.93;100.00;100973.81;4960440;28;20054;-83
2022/01/17 08:30:06;;;;;;;7.68;1.25;;;2.80;99.90;;;0.95;100.00;100977.28;4992199;28;20038;-80
2022/01/17 08:32:41;;;;;;;5.93;1.52;;;2.70;99.90;;;0.97;100.00;101003.16;4991920;28;20042;-81
2022/01/17 08:35:08;;;;;;;11.83;1.63;;;2.60;99.90;;;0.98;100.00;101047.25;4993222;28;20119;-79
2022/01/17 08:37:35;;;;;;;13.48;1.63;;;2.80;99.90;;;1.08;100.00;101065.38;4902805;28;20029;-80
2022/01/17 08:40:10;;;;;;;10.43;1.55;;;;;;;1.17;100.00;101058.47;4905669;28;20156;-79
2022/01/17 08:42:37;;;;;;;11.55;1.60;;;2.90;99.90;;;1.25;100.00;101074.00;4978373;28;20513;-79
2022/01/17 08:45:15;;;;;;;11.73;1.90;;;2.90;99.90;;;1.25;100.00;101079.19;4966158;28;20030;-80
2022/01/17 08:47:46;;;;;;;12.27;1.20;;;3.00;99.90;;;1.28;100.00;101089.56;4968942;28;20037;-80
2022/01/17 08:50:20;;;;;;;12.68;2.00;;;3.00;99.90;;;1.25;100.00;101099.94;4969274;28;20112;-82
2022/01/17 08:52:47;;;;;;;4.35;1.05;;;3.00;99.90;;;1.27;100.00;101105.97;4993787;28;20033;-80
2022/01/17 08:55:22;;;;;;;11.13;1.20;;;3.00;99.90;;;1.30;100.00;101092.16;4983064;28;20037;-80
2022/01/17 08:57:49;;;;;;;21.38;2.05;;;3.00;99.90;;;1.34;100.00;101092.16;4973945;28;20041;-79
2022/01/17 09:00:23;;;;;;;5.63;1.35;;;3.10;99.90;;;1.42;100.00;101092.97;4982639;28;20564;-80
2022/01/17 09:02:49;;;;;;;11.43;1.92;;;3.20;99.90;;;1.48;100.00;101094.69;4937264;28;20052;-81
2022/01/17 09:05:18;;;;;;;6.45;1.42;;;3.20;99.90;;;1.51;100.00;101080.81;4906102;28;20042;-81
2022/01/17 09:07:53;;;;;;;20.73;1.70;;;3.20;99.90;;;1.63;97.57;101078.19;4942199;28;20034;-81
2022/01/17 09:10:22;;;;;;;3.42;0.85;;;;;;;1.82;92.74;101111.00;4934809;28;20064;-80
2022/01/17 09:12:58;;;;;;;8.48;1.50;;;;;;;1.90;90.63;101123.06;4927525;28;20049;-81
2022/01/17 09:15:33;;;;;;;9.05;1.23;;;3.60;99.90;;;1.96;88.42;101099.69;4890490;28;20128;-80
2022/01/17 09:18:04;;;;;;;5.10;0.70;;;3.60;99.90;;;2.04;87.85;101121.28;4925385;28;20161;-80
2022/01/17 09:20:34;;;;;;;8.52;1.42;;;3.70;99.90;;;2.03;88.90;101111.75;4923746;28;20038;-79
2022/01/17 09:23:04;;;;;;;7.15;1.23;;;3.70;99.90;;;2.09;89.53;101135.09;4926007;28;20095;-80
2022/01/17 09:25:32;;;;;;;7.43;1.20;;;3.70;99.90;;;2.21;89.16;101160.19;4935141;28;22128;-79
2022/01/17 09:27:58;;;;;;;7.10;0.93;;;3.80;99.90;;;2.36;88.71;101180.88;4926051;28;20113;-80
2022/01/17 09:30:48;;;;;;;10.90;1.38;;;3.90;99.90;;;2.37;90.08;101181.72;4957992;28;20232;-80
2022/01/17 09:33:14;;;;;;;8.20;1.70;;;4.00;99.90;;;2.34;89.65;101164.44;4960798;28;20499;-80
2022/01/17 09:35:52;;;;;;;11.65;1.58;;;4.00;99.90;;;2.36;89.36;101195.63;4897169;28;20035;-81
2022/01/17 09:38:21;;;;;;;17.77;2.47;;;;;;;2.36;90.47;101195.63;4885860;28;20121;-80
2022/01/17 09:41:15;;;;;;;10.95;1.52;;;4.00;99.90;;;2.41;90.82;101204.25;4914028;28;20124;-80
2022/01/17 09:43:56;;;;;;;11.18;1.50;;;4.00;99.90;;;2.49;91.69;101217.22;4926420;28;20551;-81
2022/01/17 09:46:26;;;;;;;8.65;1.40;;;4.10;99.90;;;2.52;92.07;101223.22;4911595;28;20061;-80
2022/01/17 09:49:12;;;;;;;9.27;1.58;;;;;;;2.61;91.91;101237.91;4962160;28;20030;-81
2022/01/17 09:55:06;;;;;;;16.48;2.25;;;4.20;99.90;;;2.69;92.63;101240.47;4887532;28;20582;-79
2022/01/17 09:58:02;;;;;;;11.55;1.35;;;4.30;99.90;;;2.70;92.61;101252.59;4881130;28;20107;-80
2022/01/17 10:00:38;;;;;;;15.77;2.00;;;4.30;99.90;;;2.74;92.76;101256.91;4888258;28;20037;-80
2022/01/17 10:03:21;;;;;;;;;;;;;;;2.75;92.71;101253.47;4930933;28;20069;-81
2022/01/17 10:05:48;;;;;;;13.55;1.30;;;4.30;99.90;;;2.76;92.44;101269.03;4941047;28;20008;-80
2022/01/17 10:08:24;;;;;;;14.00;1.83;;;4.30;99.90;;;2.76;92.55;101282.03;4995846;28;20033;-80
2022/01/17 10:11:13;;;;;;;20.17;1.83;;;4.40;99.90;;;2.75;92.06;101279.47;4899504;28;20067;-81
2022/01/17 10:13:47;;;;;;;16.48;2.13;;;;;;;2.76;91.43;101292.44;4891676;28;20033;-80
2022/01/17 10:16:27;;;;;;;11.27;1.52;;;;;;;2.69;92.44;101295.94;4936450;28;20037;-80
2022/01/17 10:19:10;;;;;;;19.98;3.00;;;4.20;99.90;;;2.61;92.54;101309.00;4963036;28;20397;-80
2022/01/17 10:22:43;;;;;;;12.05;1.80;;;;;;;2.69;93.21;101308.09;4914182;28;20041;-81
2022/01/17 10:37:15;;;;;;;6.60;1.83;;;4.30;99.90;;;2.65;89.40;101351.44;4902142;28;20170;-80
2022/01/17 10:40:10;;;;;;;16.63;2.25;;;;;;;2.64;89.35;101363.59;4911100;28;20034;-80
2022/01/17 10:42:55;;;;;;;9.00;1.73;;;4.30;99.90;;;2.60;89.23;101371.41;4893006;28;20042;-80
2022/01/17 10:48:56;;;;;;;13.70;1.65;;;4.30;99.90;;;2.75;87.84;101388.69;4904126;28;20048;-81
2022/01/17 10:51:59;;;;;;;23.33;2.35;;;4.40;99.90;;;2.87;87.78;101391.22;4852071;28;20027;-80
2022/01/17 10:54:44;;;;;;;9.68;1.67;;;4.50;99.90;;;2.96;87.19;101396.41;4868219;28;20106;-79
2022/01/17 10:57:16;;;;;;;14.95;2.38;;;4.60;99.90;;;2.99;86.93;101398.97;4888803;28;20035;-81
2022/01/17 10:59:43;;;;;;;10.55;2.03;;;4.60;99.90;;;2.96;85.92;101406.81;4927929;28;20030;-81
2022/01/17 11:02:30;;;;;;;8.88;1.92;;;;;;;3.01;85.05;101407.66;4924939;28;20145;-80
2022/01/17 11:05:01;;;;;;;11.38;2.10;;;;;;;3.10;85.14;101418.88;4927363;28;20494;-80
2022/01/17 11:07:43;;;;;;;15.55;2.30;;;4.70;99.90;;;3.19;85.55;101421.44;4934013;28;20125;-80
2022/01/17 11:10:28;;;;;;;8.73;1.27;;;4.70;99.90;;;3.15;84.75;101420.56;4921077;28;20169;-79
2022/01/17 11:13:01;;;;;;;7.40;1.20;;;;;;;3.19;84.97;101432.69;4902181;28;20502;-80
2022/01/17 11:15:37;;;;;;;13.73;1.42;;;4.70;99.90;;;3.25;85.34;101439.63;4933778;28;20260;-80
2022/01/17 11:18:24;;;;;;;14.02;1.67;;;4.80;99.90;;;3.26;84.71;101447.44;4923025;28;20281;-81
2022/01/17 11:21:27;;;;;;;13.48;2.17;;;4.80;99.90;;;3.29;84.40;101436.16;4939948;28;20474;-81
2022/01/17 11:23:57;;;;;;;15.60;1.77;;;4.90;99.90;;;3.39;82.62;101436.94;4947149;28;20058;-79
2022/01/17 11:26:32;;;;;;;13.32;2.33;;;;;;;3.38;81.39;101440.44;4905868;28;20402;-82
2022/01/17 11:29:02;;;;;;;12.65;1.48;;;;;;;3.40;81.21;101443.91;4934669;28;20089;-81
2022/01/17 11:31:51;;;;;;;9.88;1.77;;;5.00;99.90;;;3.41;80.37;101450.81;4955850;28;22942;-81
2022/01/17 11:34:19;;;;;;;16.25;2.25;;;5.00;99.90;;;3.37;80.32;101452.59;4930879;28;20029;-80